Time;durP1;ratioP1;P1;durP2;ratioP2;P2;SDS_P1;SDS_P2;PMS_P1;PMS_P2;Temp;Humidity;BMP_temperature;BMP_pressure;BME280_temperature;BME280_humidity;BME280_pressure;Samples;Min_cycle;Max_cycle;Signal;HPM_P1;HPM_P2
2020/12/31 00:00:55;;;;;;;5.63;3.50;;;4.60;97.20;;;;;;5059096;28;20557;-85
2020/12/31 00:03:21;;;;;;;8.37;4.03;;;4.50;97.20;;;;;;5059593;28;20319;-84
2020/12/31 00:05:46;;;;;;;7.33;4.30;;;4.40;97.50;;;;;;5058891;28;20424;-85
2020/12/31 00:08:12;;;;;;;14.10;4.37;;;4.40;97.60;;;;;;5058640;28;20215;-84
2020/12/31 00:10:38;;;;;;;13.67;5.17;;;4.40;97.60;;;;;;5059507;28;20200;-85
2020/12/31 00:13:03;;;;;;;6.87;4.10;;;4.40;97.40;;;;;;5058234;28;20220;-84
2020/12/31 00:15:29;;;;;;;8.10;4.77;;;4.40;97.40;;;;;;5058272;28;20177;-84
2020/12/31 00:17:55;;;;;;;8.57;5.30;;;4.40;97.50;;;;;;5059342;28;20769;-85
2020/12/31 00:20:21;;;;;;;10.93;5.13;;;4.30;97.70;;;;;;5059180;28;20412;-85
2020/12/31 00:22:46;;;;;;;9.00;5.40;;;4.20;98.00;;;;;;5059037;28;20534;-84
2020/12/31 00:25:12;;;;;;;5.67;4.13;;;4.20;98.20;;;;;;5059563;28;20439;-85
2020/12/31 00:27:38;;;;;;;8.60;5.33;;;4.30;98.20;;;;;;5058388;28;20431;-85
2020/12/31 00:30:16;;;;;;;9.80;5.00;;;4.20;98.20;;;;;;5058976;28;20415;-85
2020/12/31 00:32:44;;;;;;;9.70;4.90;;;4.20;98.20;;;;;;5058728;28;20408;-85
2020/12/31 00:35:10;;;;;;;10.38;5.28;;;4.20;98.50;;;;;;5058042;28;20197;-84
2020/12/31 00:37:36;;;;;;;9.48;5.07;;;4.20;98.70;;;;;;5058424;28;20204;-85
2020/12/31 00:40:06;;;;;;;10.73;5.35;;;4.20;98.60;;;;;;5059111;28;20171;-84
2020/12/31 00:42:32;;;;;;;12.07;5.40;;;4.20;98.30;;;;;;5058054;28;20497;-85
2020/12/31 00:44:58;;;;;;;4.93;4.33;;;4.20;98.60;;;;;;5058499;28;20267;-84
2020/12/31 00:47:23;;;;;;;17.43;5.37;;;4.20;98.60;;;;;;5058510;28;20427;-85
2020/12/31 00:49:50;;;;;;;7.83;4.53;;;4.20;98.30;;;;;;5060713;28;20442;-85
2020/12/31 00:52:15;;;;;;;13.25;5.13;;;4.20;98.10;;;;;;5062307;28;20272;-85
2020/12/31 00:54:41;;;;;;;9.27;4.23;;;4.20;97.90;;;;;;5062118;28;20221;-85
2020/12/31 00:57:07;;;;;;;9.00;4.30;;;4.20;98.00;;;;;;5062359;28;20204;-86
2020/12/31 00:59:33;;;;;;;5.93;3.87;;;4.10;98.00;;;;;;5062005;28;20179;-85
2020/12/31 01:01:59;;;;;;;15.00;4.90;;;4.10;98.00;;;;;;5060736;28;20748;-84
2020/12/31 01:04:24;;;;;;;6.40;3.80;;;4.10;97.40;;;;;;5062238;28;20177;-85
2020/12/31 01:06:50;;;;;;;6.50;4.40;;;4.00;96.90;;;;;;5061530;28;20427;-84
2020/12/31 01:09:16;;;;;;;8.03;4.10;;;4.00;96.90;;;;;;5061443;28;20189;-83
2020/12/31 01:11:42;;;;;;;9.00;3.93;;;4.00;97.30;;;;;;5061620;28;20181;-84
2020/12/31 01:14:07;;;;;;;9.60;4.43;;;3.90;97.70;;;;;;5060947;28;20456;-84
2020/12/31 01:16:34;;;;;;;7.80;4.37;;;3.90;97.80;;;;;;5060712;28;20431;-83
2020/12/31 01:19:01;;;;;;;6.85;3.55;;;3.90;97.80;;;;;;5059865;28;20506;-84
2020/12/31 01:21:27;;;;;;;6.13;3.83;;;4.00;97.60;;;;;;5061283;28;20785;-84
2020/12/31 01:23:52;;;;;;;10.73;4.30;;;4.00;97.40;;;;;;5060513;28;20212;-84
2020/12/31 01:26:32;;;;;;;6.20;3.90;;;4.00;97.30;;;;;;5058644;28;20193;-85
2020/12/31 01:28:58;;;;;;;6.65;4.00;;;4.00;97.60;;;;;;5058789;28;20986;-85
2020/12/31 01:31:24;;;;;;;6.72;3.55;;;3.90;97.60;;;;;;5058568;28;20615;-85
2020/12/31 01:33:50;;;;;;;7.60;3.47;;;4.00;97.30;;;;;;5058355;28;20228;-86
2020/12/31 01:36:16;;;;;;;8.35;4.43;;;3.90;97.10;;;;;;5058411;28;20439;-86
2020/12/31 01:38:42;;;;;;;6.03;3.40;;;3.80;97.10;;;;;;5057995;28;20170;-85
2020/12/31 01:41:07;;;;;;;9.70;4.53;;;3.80;97.10;;;;;;5058118;28;20172;-86
2020/12/31 01:43:33;;;;;;;6.27;3.33;;;3.80;97.00;;;;;;5058189;28;20169;-86
2020/12/31 01:45:59;;;;;;;8.80;4.90;;;3.80;97.10;;;;;;5058716;28;20432;-86
2020/12/31 01:48:25;;;;;;;8.57;4.37;;;3.80;97.00;;;;;;5059576;28;20184;-86
2020/12/31 01:50:51;;;;;;;6.85;4.05;;;3.70;97.10;;;;;;5059296;28;20173;-86
2020/12/31 01:53:17;;;;;;;9.45;4.55;;;3.60;97.30;;;;;;5059130;28;20201;-86
2020/12/31 01:55:43;;;;;;;7.25;3.72;;;3.50;97.20;;;;;;5058682;28;20154;-86
2020/12/31 01:58:09;;;;;;;17.05;5.13;;;3.40;97.50;;;;;;5058851;28;20180;-86
2020/12/31 02:00:37;;;;;;;7.90;4.90;;;3.30;98.10;;;;;;5058015;28;20589;-86
2020/12/31 02:03:03;;;;;;;11.30;4.82;;;3.30;98.10;;;;;;5057798;28;20173;-86
2020/12/31 02:05:29;;;;;;;10.02;4.95;;;3.30;97.90;;;;;;5058171;28;20587;-86
2020/12/31 02:07:55;;;;;;;6.38;4.20;;;3.30;97.90;;;;;;5057741;28;20303;-86
2020/12/31 02:10:21;;;;;;;7.90;4.63;;;3.30;98.00;;;;;;5057994;28;20775;-86
2020/12/31 02:12:47;;;;;;;10.17;3.90;;;3.20;97.60;;;;;;5057807;28;20483;-86
2020/12/31 02:15:16;;;;;;;12.43;4.70;;;3.10;97.60;;;;;;5057957;28;20265;-86
2020/12/31 02:17:43;;;;;;;9.93;4.43;;;3.00;97.80;;;;;;5058188;28;20281;-87
2020/12/31 02:20:10;;;;;;;7.22;3.75;;;3.00;98.20;;;;;;5058802;28;20173;-85
2020/12/31 02:22:36;;;;;;;7.72;4.30;;;3.10;98.30;;;;;;5058422;28;20169;-85
2020/12/31 02:25:02;;;;;;;5.73;4.07;;;3.10;98.20;;;;;;5117554;22;20252;-77
2020/12/31 02:27:28;;;;;;;6.97;3.67;;;3.10;97.80;;;;;;5038069;28;20189;-76
2020/12/31 02:29:54;;;;;;;7.20;3.53;;;3.10;97.70;;;;;;5038275;28;20169;-77
2020/12/31 02:32:19;;;;;;;7.10;3.80;;;3.10;97.60;;;;;;5034623;28;20196;-74
2020/12/31 02:34:45;;;;;;;7.10;4.03;;;3.10;97.60;;;;;;5032883;28;20542;-74
2020/12/31 02:37:11;;;;;;;9.10;4.83;;;3.10;97.30;;;;;;5034398;28;20467;-74
2020/12/31 02:39:37;;;;;;;5.50;3.35;;;3.10;97.10;;;;;;5034078;28;20778;-75
2020/12/31 02:42:03;;;;;;;10.10;4.90;;;3.10;96.80;;;;;;5034176;28;20176;-74
2020/12/31 02:44:29;;;;;;;8.47;4.23;;;3.10;96.40;;;;;;5034352;28;20416;-74
2020/12/31 02:46:55;;;;;;;8.50;4.03;;;3.10;96.40;;;;;;5034031;28;20423;-73
2020/12/31 02:49:20;;;;;;;7.47;4.13;;;3.10;96.50;;;;;;5034399;28;20927;-75
2020/12/31 02:51:47;;;;;;;7.73;4.67;;;3.10;96.40;;;;;;5034400;28;20491;-74
2020/12/31 02:54:13;;;;;;;7.15;3.85;;;3.20;96.30;;;;;;5034103;28;21257;-75
2020/12/31 02:56:38;;;;;;;6.67;4.60;;;3.20;96.10;;;;;;5033938;28;20220;-75
2020/12/31 02:59:04;;;;;;;9.37;4.73;;;3.20;95.50;;;;;;5034076;28;20412;-75
2020/12/31 03:01:30;;;;;;;8.40;4.90;;;3.20;96.00;;;;;;5034094;28;20176;-74
2020/12/31 03:03:56;;;;;;;10.93;4.13;;;3.10;96.30;;;;;;5034046;28;20322;-74
2020/12/31 03:06:21;;;;;;;7.78;3.80;;;3.20;96.30;;;;;;5033824;28;20279;-74
2020/12/31 03:08:47;;;;;;;8.93;4.20;;;3.10;96.00;;;;;;5034024;28;20175;-74
2020/12/31 03:11:24;;;;;;;5.35;3.30;;;3.20;96.20;;;;;;5033451;28;20181;-74
2020/12/31 03:13:51;;;;;;;6.78;3.55;;;3.20;96.20;;;;;;5033889;28;20566;-75
2020/12/31 03:16:18;;;;;;;8.57;4.22;;;3.20;96.20;;;;;;5033939;28;20561;-75
2020/12/31 03:18:44;;;;;;;8.90;3.92;;;3.20;96.20;;;;;;5033991;28;20193;-74
2020/12/31 03:21:10;;;;;;;10.48;4.10;;;3.20;96.20;;;;;;5033788;28;20165;-74
2020/12/31 03:23:36;;;;;;;12.43;5.13;;;3.10;96.00;;;;;;5033881;28;20177;-74
2020/12/31 03:26:02;;;;;;;15.85;4.13;;;3.20;95.60;;;;;;5033670;28;20558;-74
2020/12/31 03:28:27;;;;;;;8.43;4.10;;;3.10;95.70;;;;;;5033784;28;20173;-75
2020/12/31 03:30:53;;;;;;;12.63;4.23;;;3.10;95.70;;;;;;5033742;28;20971;-74
2020/12/31 03:33:20;;;;;;;7.40;4.27;;;3.00;95.80;;;;;;5033654;28;20539;-75
2020/12/31 03:35:48;;;;;;;11.25;4.68;;;3.00;95.60;;;;;;5033652;28;20196;-74
2020/12/31 03:38:16;;;;;;;7.05;3.97;;;2.90;95.80;;;;;;5033997;28;20538;-74
2020/12/31 03:40:42;;;;;;;8.45;3.50;;;2.90;95.90;;;;;;5033670;28;20165;-74
2020/12/31 03:43:08;;;;;;;9.07;4.35;;;2.80;95.80;;;;;;5033648;28;20173;-74
2020/12/31 03:45:34;;;;;;;10.98;4.63;;;2.70;96.10;;;;;;5033550;28;20264;-75
2020/12/31 03:48:01;;;;;;;10.27;4.43;;;2.60;96.50;;;;;;5033558;28;20181;-74
2020/12/31 03:50:27;;;;;;;8.07;3.83;;;2.50;96.40;;;;;;5033609;28;20197;-74
2020/12/31 03:52:53;;;;;;;8.52;4.28;;;2.50;96.60;;;;;;5033805;28;20169;-74
2020/12/31 03:55:18;;;;;;;9.33;4.57;;;2.50;96.70;;;;;;5033380;28;20295;-74
2020/12/31 03:57:44;;;;;;;8.63;3.85;;;2.50;96.70;;;;;;5033524;28;20458;-74
2020/12/31 04:00:10;;;;;;;8.20;3.77;;;2.40;96.80;;;;;;5033349;28;20173;-74
2020/12/31 04:02:36;;;;;;;11.23;4.25;;;2.40;96.90;;;;;;5033620;28;20414;-77
2020/12/31 04:05:03;;;;;;;7.05;3.55;;;2.40;96.80;;;;;;5033712;28;20598;-77
2020/12/31 04:07:29;;;;;;;7.93;3.53;;;2.30;97.00;;;;;;5033806;28;20205;-76
2020/12/31 04:09:54;;;;;;;6.10;3.77;;;2.30;97.00;;;;;;5033733;28;20176;-77
2020/12/31 04:12:20;;;;;;;8.00;4.30;;;2.30;96.90;;;;;;5033840;28;20613;-77
2020/12/31 04:14:46;;;;;;;9.83;4.90;;;2.30;96.70;;;;;;5033711;28;20239;-77
2020/12/31 04:17:12;;;;;;;5.73;3.33;;;2.30;96.70;;;;;;5034150;28;20943;-77
2020/12/31 04:19:44;;;;;;;8.82;4.10;;;2.30;96.60;;;;;;5034194;28;20173;-77
2020/12/31 04:22:10;;;;;;;9.52;4.93;;;2.30;96.50;;;;;;5033911;28;20173;-77
2020/12/31 04:24:36;;;;;;;12.65;4.53;;;2.20;96.80;;;;;;5037731;28;20218;-77
2020/12/31 04:27:02;;;;;;;9.37;4.17;;;2.20;96.80;;;;;;5037560;28;20576;-77
2020/12/31 04:29:28;;;;;;;12.73;4.65;;;2.20;96.80;;;;;;5037702;28;20451;-77
2020/12/31 04:31:53;;;;;;;8.27;4.17;;;2.10;96.90;;;;;;5038000;28;20215;-77
2020/12/31 04:34:19;;;;;;;9.23;4.37;;;2.10;97.00;;;;;;5037792;28;20205;-77
2020/12/31 04:36:45;;;;;;;8.63;3.97;;;2.10;97.10;;;;;;5037819;28;20201;-77
2020/12/31 04:39:11;;;;;;;10.40;5.20;;;2.10;97.10;;;;;;5037671;28;20419;-77
2020/12/31 04:41:37;;;;;;;7.73;4.10;;;2.00;97.10;;;;;;5037585;28;20408;-77
2020/12/31 04:44:03;;;;;;;11.10;3.73;;;2.00;97.10;;;;;;5037569;28;20420;-77
2020/12/31 04:46:30;;;;;;;7.57;4.50;;;1.80;97.50;;;;;;5037510;28;20780;-77
2020/12/31 04:49:12;;;;;;;7.30;4.15;;;1.80;98.10;;;;;;5037827;28;20173;-77
2020/12/31 04:51:39;;;;;;;12.25;4.45;;;1.80;97.90;;;;;;5037319;28;20172;-77
2020/12/31 04:54:06;;;;;;;10.80;4.90;;;1.70;98.10;;;;;;5037474;28;20323;-77
2020/12/31 04:56:37;;;;;;;9.55;4.53;;;1.70;98.30;;;;;;5037294;28;20193;-77
2020/12/31 04:59:07;;;;;;;9.93;4.30;;;1.70;98.30;;;;;;5037682;28;20177;-77
2020/12/31 05:01:34;;;;;;;6.75;3.70;;;1.70;98.20;;;;;;5037263;28;20209;-77
2020/12/31 05:03:59;;;;;;;9.00;3.50;;;1.70;98.10;;;;;;5037196;28;20177;-77
2020/12/31 05:06:27;;;;;;;7.93;4.60;;;1.70;98.00;;;;;;5037113;28;20584;-77
2020/12/31 05:08:53;;;;;;;7.53;4.30;;;1.60;98.10;;;;;;5037143;28;20419;-77
2020/12/31 05:11:19;;;;;;;10.40;4.27;;;1.60;98.30;;;;;;5037072;28;20173;-77
2020/12/31 05:13:49;;;;;;;9.18;5.15;;;1.60;98.20;;;;;;5036915;28;20975;-77
2020/12/31 05:16:35;;;;;;;6.47;3.60;;;1.60;97.90;;;;;;5037243;28;20193;-77
2020/12/31 05:19:18;;;;;;;9.90;3.55;;;1.60;97.80;;;;;;5036579;28;20173;-77
2020/12/31 05:21:44;;;;;;;7.15;3.58;;;1.60;97.60;;;;;;5036964;28;20215;-77
2020/12/31 05:24:16;;;;;;;5.70;3.50;;;1.60;97.60;;;;;;5036760;28;20193;-77
2020/12/31 05:26:42;;;;;;;5.32;3.20;;;1.60;97.30;;;;;;5036506;28;20623;-76
2020/12/31 05:29:08;;;;;;;8.50;3.95;;;1.50;97.20;;;;;;5036527;28;20174;-76
2020/12/31 05:31:56;;;;;;;6.82;3.50;;;1.50;96.90;;;;;;5036302;28;20587;-76
2020/12/31 05:34:29;;;;;;;7.25;3.45;;;1.50;97.00;;;;;;5035580;28;20692;-75
2020/12/31 05:36:55;;;;;;;9.27;4.70;;;1.40;97.00;;;;;;5036267;28;20243;-76
2020/12/31 05:39:21;;;;;;;15.07;4.17;;;1.40;96.90;;;;;;5036436;28;20177;-76
2020/12/31 05:41:47;;;;;;;5.57;3.30;;;1.40;97.10;;;;;;5036207;28;20440;-76
2020/12/31 05:44:12;;;;;;;6.67;3.30;;;1.40;97.20;;;;;;5036378;28;20426;-76
2020/12/31 05:46:39;;;;;;;13.60;4.47;;;1.40;97.20;;;;;;5036238;28;20435;-75
2020/12/31 05:49:10;;;;;;;8.63;3.80;;;1.40;97.10;;;;;;5036233;28;20412;-76
2020/12/31 05:51:37;;;;;;;8.27;4.30;;;1.40;96.90;;;;;;5036243;28;20181;-76
2020/12/31 05:54:13;;;;;;;6.57;4.10;;;1.30;97.20;;;;;;5036329;28;20200;-76
2020/12/31 05:56:44;;;;;;;11.05;4.80;;;1.30;97.20;;;;;;5036014;28;20189;-75
2020/12/31 05:59:27;;;;;;;7.65;4.00;;;1.30;97.30;;;;;;5036180;28;20176;-75
2020/12/31 06:02:03;;;;;;;8.80;4.35;;;1.30;97.50;;;;;;5035813;28;20532;-76
2020/12/31 06:04:46;;;;;;;6.93;3.70;;;1.30;97.70;;;;;;5036274;28;20157;-76
2020/12/31 06:07:32;;;;;;;8.70;4.20;;;1.30;97.90;;;;;;5035925;28;20738;-75
2020/12/31 06:10:05;;;;;;;7.68;4.63;;;1.30;97.80;;;;;;5036094;28;20169;-76
2020/12/31 06:12:46;;;;;;;4.22;3.30;;;1.20;97.80;;;;;;5035723;28;20208;-75
2020/12/31 06:15:17;;;;;;;7.57;3.30;;;1.20;97.80;;;;;;5035736;28;20193;-76
2020/12/31 06:17:47;;;;;;;6.68;3.63;;;1.20;97.70;;;;;;5035777;28;20252;-76
2020/12/31 06:20:16;;;;;;;8.88;4.13;;;1.20;97.50;;;;;;5035717;28;20174;-76
2020/12/31 06:22:58;;;;;;;7.68;4.45;;;1.20;97.60;;;;;;5035577;28;20170;-76
2020/12/31 06:25:37;;;;;;;7.13;4.05;;;1.20;97.60;;;;;;5035434;28;20192;-76
2020/12/31 06:28:31;;;;;;;7.90;3.92;;;1.10;97.80;;;;;;5035474;28;20234;-76
2020/12/31 06:30:57;;;;;;;8.93;4.15;;;1.10;98.20;;;;;;5033298;28;20637;-76
2020/12/31 06:33:46;;;;;;;9.53;4.50;;;1.10;98.60;;;;;;5035213;28;20205;-77
2020/12/31 06:36:13;;;;;;;7.63;4.10;;;1.10;98.60;;;;;;5034855;28;20673;-77
2020/12/31 06:38:42;;;;;;;7.55;3.88;;;1.10;98.60;;;;;;5035563;28;20244;-77
2020/12/31 06:41:31;;;;;;;6.90;4.00;;;1.20;98.60;;;;;;5035175;28;20269;-75
2020/12/31 06:44:10;;;;;;;7.18;4.40;;;1.20;98.60;;;;;;5025846;28;20181;-76
2020/12/31 06:46:43;;;;;;;7.28;3.65;;;1.20;98.50;;;;;;5034992;28;20197;-76
2020/12/31 06:49:10;;;;;;;9.02;3.95;;;1.20;98.50;;;;;;5034966;28;20242;-76
2020/12/31 06:51:36;;;;;;;6.70;3.65;;;1.20;98.40;;;;;;5034901;28;20188;-76
2020/12/31 06:54:03;;;;;;;8.27;4.75;;;1.20;98.40;;;;;;5034897;28;20236;-75
2020/12/31 06:56:49;;;;;;;10.95;4.38;;;1.20;98.40;;;;;;5034663;28;20213;-75
2020/12/31 06:59:31;;;;;;;9.15;4.07;;;1.20;98.50;;;;;;5035090;28;20165;-75
2020/12/31 07:02:20;;;;;;;21.15;4.75;;;1.20;98.20;;;;;;5034843;28;20226;-76
2020/12/31 07:04:46;;;;;;;9.00;4.13;;;1.20;98.10;;;;;;5034899;28;20520;-76
2020/12/31 07:07:21;;;;;;;11.43;6.07;;;1.20;98.00;;;;;;5034690;28;20189;-76
2020/12/31 07:09:57;;;;;;;14.60;6.82;;;1.20;97.60;;;;;;5034757;28;20177;-75
2020/12/31 07:12:46;;;;;;;8.95;5.07;;;1.10;97.60;;;;;;5034879;28;20676;-76
2020/12/31 07:15:17;;;;;;;9.27;4.70;;;1.20;97.60;;;;;;5034843;28;20538;-76
2020/12/31 07:17:45;;;;;;;21.58;6.38;;;1.20;97.70;;;;;;5018571;28;20221;-76
2020/12/31 07:20:13;;;;;;;14.60;6.63;;;1.20;97.60;;;;;;5034711;28;20197;-76
2020/12/31 07:22:40;;;;;;;13.10;5.15;;;1.20;97.80;;;;;;5034476;28;20174;-76
2020/12/31 07:25:16;;;;;;;12.50;6.10;;;1.20;97.60;;;;;;5034315;28;20223;-76
2020/12/31 07:27:44;;;;;;;12.70;5.07;;;1.30;97.50;;;;;;5034633;28;20298;-76
2020/12/31 07:30:11;;;;;;;10.63;5.00;;;1.30;97.40;;;;;;5034261;28;20185;-75
2020/12/31 07:32:52;;;;;;;10.20;5.05;;;1.30;97.40;;;;;;5034459;28;20177;-75
2020/12/31 07:35:27;;;;;;;14.32;5.50;;;1.30;97.30;;;;;;5034154;28;20204;-76
2020/12/31 07:38:14;;;;;;;10.68;5.38;;;1.30;97.40;;;;;;5033992;28;20215;-75
2020/12/31 07:40:56;;;;;;;11.40;5.40;;;1.30;97.30;;;;;;5034200;28;20610;-75
2020/12/31 07:43:25;;;;;;;10.32;5.47;;;1.30;97.50;;;;;;5034041;28;20308;-75
2020/12/31 07:45:53;;;;;;;14.93;5.20;;;1.20;97.70;;;;;;5034017;28;20545;-75
2020/12/31 07:48:20;;;;;;;12.98;4.88;;;1.30;97.90;;;;;;5034202;28;20222;-75
2020/12/31 07:50:51;;;;;;;11.02;5.43;;;1.40;97.80;;;;;;5034087;28;20199;-76
2020/12/31 07:53:17;;;;;;;18.17;6.35;;;1.40;97.40;;;;;;5033872;28;20169;-75
2020/12/31 07:55:53;;;;;;;18.67;5.50;;;1.50;97.40;;;;;;5034058;28;20181;-75
2020/12/31 07:58:21;;;;;;;14.35;6.47;;;1.50;97.30;;;;;;5035493;28;20415;-76
2020/12/31 08:01:06;;;;;;;11.70;5.20;;;1.50;97.20;;;;;;5037901;28;20177;-74
2020/12/31 08:03:33;;;;;;;12.60;6.05;;;1.60;97.00;;;;;;5037908;28;20263;-75
2020/12/31 08:06:00;;;;;;;13.90;5.28;;;1.60;96.70;;;;;;5037749;28;20323;-75
2020/12/31 08:08:27;;;;;;;19.23;5.75;;;1.70;96.20;;;;;;5037688;28;20183;-77
2020/12/31 08:10:53;;;;;;;12.82;5.82;;;1.80;95.90;;;;;;5037816;28;20259;-75
2020/12/31 08:13:19;;;;;;;14.38;5.43;;;1.90;96.00;;;;;;5037675;28;20179;-74
2020/12/31 08:15:53;;;;;;;12.80;5.63;;;2.00;96.10;;;;;;5037679;28;20173;-75
2020/12/31 08:18:21;;;;;;;10.98;5.30;;;2.00;95.80;;;;;;5037858;28;20172;-76
2020/12/31 08:20:48;;;;;;;9.48;4.82;;;2.10;95.60;;;;;;5037243;28;20656;-75
2020/12/31 08:23:40;;;;;;;12.52;6.32;;;2.10;95.50;;;;;;5037498;28;20166;-78
2020/12/31 08:26:13;;;;;;;13.65;6.60;;;2.20;95.50;;;;;;5096735;22;20265;-82
2020/12/31 08:28:43;;;;;;;13.50;6.70;;;2.20;95.50;;;;;;5021808;28;20212;-82
2020/12/31 08:31:14;;;;;;;11.80;6.28;;;2.20;95.00;;;;;;5021678;28;20171;-82
2020/12/31 08:33:42;;;;;;;23.35;6.20;;;2.20;94.80;;;;;;5021333;28;20197;-82
2020/12/31 08:36:11;;;;;;;16.45;6.50;;;2.30;95.30;;;;;;5021564;28;20196;-82
2020/12/31 08:38:38;;;;;;;17.35;8.07;;;2.30;95.40;;;;;;5021785;28;20166;-82
2020/12/31 08:41:08;;;;;;;17.88;6.32;;;2.40;95.70;;;;;;5022316;28;20189;-80
2020/12/31 08:43:35;;;;;;;14.55;7.50;;;2.40;95.50;;;;;;5022995;28;20224;-80
2020/12/31 08:46:03;;;;;;;14.23;7.03;;;2.50;95.20;;;;;;5022826;28;20301;-81
2020/12/31 08:48:31;;;;;;;17.15;7.20;;;2.50;95.10;;;;;;5021771;28;20232;-77
2020/12/31 08:51:13;;;;;;;12.32;6.65;;;2.50;95.20;;;;;;5018845;28;20180;-82
2020/12/31 08:53:51;;;;;;;18.33;7.95;;;2.60;95.10;;;;;;5019125;28;20654;-83
2020/12/31 08:56:18;;;;;;;17.00;7.07;;;2.60;94.50;;;;;;5018453;28;20190;-82
2020/12/31 08:58:44;;;;;;;13.43;5.68;;;2.70;94.30;;;;;;5018105;28;20173;-82
2020/12/31 09:01:24;;;;;;;16.47;6.67;;;2.70;94.50;;;;;;5018413;28;20170;-82
2020/12/31 09:03:50;;;;;;;14.57;7.30;;;2.80;94.60;;;;;;5018201;28;21008;-82
2020/12/31 09:06:26;;;;;;;14.68;6.60;;;2.90;94.50;;;;;;5017749;28;20255;-82
2020/12/31 09:08:52;;;;;;;15.10;6.72;;;2.90;94.50;;;;;;5021061;28;20184;-83
2020/12/31 09:11:28;;;;;;;16.65;7.72;;;2.90;94.00;;;;;;5034655;28;20189;-82
2020/12/31 09:14:05;;;;;;;13.90;6.43;;;3.00;94.20;;;;;;5027473;28;20189;-82
2020/12/31 09:16:31;;;;;;;16.23;6.45;;;3.00;93.40;;;;;;5018098;28;20193;-83
2020/12/31 09:19:00;;;;;;;17.47;7.30;;;3.00;93.90;;;;;;5017970;28;20733;-82
2020/12/31 09:21:30;;;;;;;18.10;7.93;;;3.00;93.80;;;;;;5017698;28;20174;-82
2020/12/31 09:23:57;;;;;;;15.43;7.57;;;3.10;94.10;;;;;;5017782;28;20204;-82
2020/12/31 09:26:28;;;;;;;14.48;7.80;;;3.10;93.90;;;;;;5017768;28;20618;-82
2020/12/31 09:28:55;;;;;;;15.90;7.93;;;3.20;93.50;;;;;;5017906;28;20256;-82
2020/12/31 09:31:24;;;;;;;15.65;7.32;;;3.20;93.60;;;;;;5017469;28;20209;-82
2020/12/31 09:33:51;;;;;;;20.50;7.28;;;3.30;93.30;;;;;;5018285;28;20198;-82
2020/12/31 09:36:26;;;;;;;15.77;7.32;;;3.40;93.20;;;;;;5017665;28;20247;-83
2020/12/31 09:38:52;;;;;;;16.27;7.65;;;3.40;93.50;;;;;;5012524;28;20200;-82
2020/12/31 09:41:18;;;;;;;15.18;8.50;;;3.50;93.00;;;;;;4997936;28;20171;-82
2020/12/31 09:43:44;;;;;;;15.82;7.88;;;3.50;93.20;;;;;;4998335;28;20178;-82
2020/12/31 09:46:11;;;;;;;21.52;6.88;;;3.50;93.30;;;;;;4997678;28;20194;-83
2020/12/31 09:48:36;;;;;;;12.73;6.85;;;3.60;93.00;;;;;;4997965;28;20254;-82
2020/12/31 09:51:03;;;;;;;18.80;7.47;;;3.70;93.30;;;;;;4997881;28;20641;-82
2020/12/31 09:53:29;;;;;;;17.85;7.75;;;3.80;93.20;;;;;;4997563;28;20182;-82
2020/12/31 09:55:55;;;;;;;17.33;8.00;;;3.90;92.80;;;;;;4997837;28;20659;-82
2020/12/31 09:58:21;;;;;;;18.55;7.72;;;4.00;92.50;;;;;;4997652;28;20418;-83
2020/12/31 10:00:47;;;;;;;21.23;8.20;;;4.10;91.70;;;;;;4997446;28;20224;-82
2020/12/31 10:03:12;;;;;;;18.93;9.20;;;4.10;91.80;;;;;;4997385;28;20174;-83
2020/12/31 10:05:38;;;;;;;16.70;6.73;;;4.20;91.60;;;;;;4997358;28;20497;-82
2020/12/31 10:08:04;;;;;;;16.50;8.30;;;4.20;90.90;;;;;;4997240;28;20171;-82
2020/12/31 10:10:29;;;;;;;21.33;8.80;;;4.20;91.00;;;;;;4997510;28;20225;-82
2020/12/31 10:12:55;;;;;;;14.23;6.67;;;4.20;90.50;;;;;;4996994;28;20216;-82
2020/12/31 10:15:21;;;;;;;19.13;7.70;;;4.30;91.50;;;;;;5015932;28;20248;-82
2020/12/31 10:17:47;;;;;;;21.23;7.57;;;4.30;90.90;;;;;;5016645;28;20723;-82
2020/12/31 10:20:12;;;;;;;16.40;7.90;;;4.40;90.70;;;;;;5020942;28;20707;-82
2020/12/31 10:22:38;;;;;;;13.80;7.37;;;4.50;91.30;;;;;;5017315;28;20166;-82
2020/12/31 10:25:04;;;;;;;17.67;6.97;;;4.50;90.80;;;;;;5017421;28;20284;-81
2020/12/31 10:27:29;;;;;;;17.40;8.00;;;4.60;91.50;;;;;;5017387;28;20243;-82
2020/12/31 10:29:56;;;;;;;19.90;8.07;;;4.70;91.40;;;;;;5017163;28;20421;-83
2020/12/31 10:32:22;;;;;;;18.13;7.97;;;4.70;90.80;;;;;;5017113;28;20665;-82
2020/12/31 10:34:47;;;;;;;14.40;6.83;;;4.80;90.60;;;;;;5017336;28;20393;-82
2020/12/31 10:37:13;;;;;;;15.70;8.00;;;4.90;91.00;;;;;;5018364;28;20852;-82
2020/12/31 10:39:39;;;;;;;15.50;7.80;;;5.10;90.20;;;;;;5016973;28;20637;-81
2020/12/31 10:42:06;;;;;;;12.37;6.77;;;5.10;89.10;;;;;;5018932;28;20413;-81
2020/12/31 10:44:32;;;;;;;17.10;9.55;;;5.10;87.70;;;;;;5017963;28;20178;-82
2020/12/31 10:46:58;;;;;;;23.23;8.60;;;5.20;88.50;;;;;;5016974;28;20198;-82
2020/12/31 10:49:24;;;;;;;17.33;7.50;;;5.20;86.70;;;;;;5016639;28;20486;-82
2020/12/31 10:51:56;;;;;;;18.83;8.40;;;5.20;87.30;;;;;;5018218;28;20439;-81
2020/12/31 10:54:22;;;;;;;21.10;8.27;;;5.10;87.80;;;;;;5017133;28;20535;-82
2020/12/31 10:56:50;;;;;;;19.15;8.05;;;5.20;87.60;;;;;;5017597;28;20673;-82
2020/12/31 10:59:16;;;;;;;23.48;7.60;;;5.20;87.40;;;;;;5016859;28;20174;-82
2020/12/31 11:01:42;;;;;;;14.30;7.30;;;5.20;88.70;;;;;;5017098;28;20276;-82
2020/12/31 11:04:08;;;;;;;13.10;7.40;;;5.20;89.80;;;;;;5019853;28;20958;-82
2020/12/31 11:06:34;;;;;;;12.02;6.13;;;5.00;89.20;;;;;;5017640;28;20194;-81
2020/12/31 11:09:00;;;;;;;17.47;7.73;;;4.80;89.60;;;;;;5016445;28;20178;-82
2020/12/31 11:11:31;;;;;;;16.60;7.40;;;4.70;91.10;;;;;;5016185;28;20428;-82
2020/12/31 11:13:57;;;;;;;16.55;6.78;;;4.70;92.50;;;;;;5016009;28;20527;-82
2020/12/31 11:16:23;;;;;;;17.23;7.43;;;4.60;93.90;;;;;;5016024;28;20190;-83
2020/12/31 11:18:49;;;;;;;17.43;6.40;;;4.60;94.00;;;;;;5015994;28;20178;-83
2020/12/31 11:21:17;;;;;;;12.95;6.50;;;4.70;95.20;;;;;;5016081;28;20419;-83
2020/12/31 11:23:43;;;;;;;13.85;6.53;;;4.60;94.70;;;;;;5015722;28;20181;-82
2020/12/31 11:26:20;;;;;;;18.77;7.37;;;4.70;95.40;;;;;;5015370;28;20213;-83
2020/12/31 11:28:50;;;;;;;17.20;5.70;;;4.70;96.00;;;;;;5015688;28;20447;-82
2020/12/31 11:31:23;;;;;;;14.95;7.72;;;4.70;95.10;;;;;;5015395;28;20192;-83
2020/12/31 11:33:48;;;;;;;13.10;7.05;;;4.70;95.40;;;;;;5014931;28;20577;-83
2020/12/31 11:36:14;;;;;;;19.07;7.67;;;4.80;96.50;;;;;;5015294;28;20285;-83
2020/12/31 11:38:40;;;;;;;15.83;7.37;;;4.80;96.50;;;;;;5015614;28;20412;-82
2020/12/31 11:41:07;;;;;;;15.33;7.33;;;4.90;95.90;;;;;;5032756;28;20415;-82
2020/12/31 11:43:36;;;;;;;22.70;8.40;;;4.90;95.90;;;;;;5015579;28;20421;-83
2020/12/31 11:46:06;;;;;;;16.48;7.80;;;5.00;96.30;;;;;;5015354;28;20216;-82
2020/12/31 11:48:32;;;;;;;11.10;6.18;;;5.00;94.60;;;;;;5015158;28;20549;-82
2020/12/31 11:50:59;;;;;;;14.45;7.13;;;5.00;94.60;;;;;;5015322;28;20181;-82
2020/12/31 11:53:26;;;;;;;14.95;7.47;;;5.00;95.10;;;;;;5015256;28;20178;-83
2020/12/31 11:55:52;;;;;;;15.75;7.38;;;5.00;94.20;;;;;;5015699;28;20264;-82
2020/12/31 11:58:18;;;;;;;20.57;8.00;;;5.10;94.00;;;;;;5015144;28;20317;-84
2020/12/31 12:00:44;;;;;;;18.57;7.73;;;5.10;94.30;;;;;;5015803;28;20658;-83
2020/12/31 12:03:11;;;;;;;13.85;6.43;;;5.20;94.50;;;;;;5015303;28;20648;-82
2020/12/31 12:05:36;;;;;;;12.50;7.38;;;5.30;93.30;;;;;;5015113;28;20554;-82
2020/12/31 12:08:06;;;;;;;14.73;6.63;;;5.40;92.90;;;;;;5015206;28;20173;-83
2020/12/31 12:10:33;;;;;;;11.95;6.28;;;5.30;92.30;;;;;;5014989;28;20442;-83
2020/12/31 12:12:59;;;;;;;13.93;6.63;;;5.30;91.90;;;;;;5014688;28;20261;-83
2020/12/31 12:15:25;;;;;;;9.70;4.93;;;5.20;91.90;;;;;;5014977;28;20284;-82
2020/12/31 12:17:51;;;;;;;9.50;5.30;;;5.20;92.50;;;;;;5014556;28;20456;-81
2020/12/31 12:20:17;;;;;;;13.40;6.13;;;5.20;92.60;;;;;;5015028;28;20184;-83
2020/12/31 12:22:43;;;;;;;10.63;6.25;;;5.20;91.90;;;;;;5014890;28;20638;-83
2020/12/31 12:25:09;;;;;;;11.90;5.97;;;5.20;92.20;;;;;;5015005;28;20201;-82
2020/12/31 12:27:35;;;;;;;15.95;8.77;;;5.30;92.70;;;;;;5015102;28;20432;-82
2020/12/31 12:30:07;;;;;;;20.20;9.65;;;5.30;91.60;;;;;;5015704;28;20178;-82
2020/12/31 12:32:35;;;;;;;21.23;11.00;;;5.30;92.00;;;;;;5015402;28;20174;-83
2020/12/31 12:35:01;;;;;;;12.32;6.55;;;5.30;91.80;;;;;;5015424;28;20202;-83
2020/12/31 12:37:26;;;;;;;11.23;5.78;;;5.40;91.40;;;;;;5015236;28;20303;-81
2020/12/31 12:39:52;;;;;;;13.50;6.00;;;5.40;91.90;;;;;;5015026;28;20261;-82
2020/12/31 12:42:18;;;;;;;13.87;7.17;;;5.40;90.90;;;;;;5015127;28;20585;-83
2020/12/31 12:44:44;;;;;;;14.97;6.47;;;5.30;90.80;;;;;;5019071;28;20511;-83
2020/12/31 12:47:09;;;;;;;15.77;5.63;;;5.40;92.10;;;;;;5019780;28;20574;-83
2020/12/31 12:49:35;;;;;;;10.90;5.70;;;5.40;91.40;;;;;;5018629;28;20174;-83
2020/12/31 12:52:04;;;;;;;15.47;6.73;;;5.50;91.40;;;;;;5018596;28;20427;-83
2020/12/31 12:54:30;;;;;;;14.48;6.45;;;5.40;90.90;;;;;;5018580;28;20453;-83
2020/12/31 12:56:56;;;;;;;10.93;6.03;;;5.40;91.10;;;;;;5018975;28;20540;-83